Time;durP1;ratioP1;P1;durP2;ratioP2;P2;SDS_P1;SDS_P2;PMS_P1;PMS_P2;Temp;Humidity;BMP_temperature;BMP_pressure;BME280_temperature;BME280_humidity;BME280_pressure;Samples;Min_cycle;Max_cycle;Signal;HPM_P1;HPM_P2
2021/08/17 00:00:49;;;;;;;;;;;15.10;96.50;;;;;;5013691;28;20400;-89
2021/08/17 00:03:15;;;;;;;;;;;15.00;96.70;;;;;;5014408;28;19910;-88
2021/08/17 00:05:41;;;;;;;;;;;15.00;96.90;;;;;;5014067;28;19964;-89
2021/08/17 00:08:07;;;;;;;;;;;15.00;97.10;;;;;;5016097;28;20375;-89
2021/08/17 00:10:32;;;;;;;;;;;15.00;97.20;;;;;;5017523;28;19960;-90
2021/08/17 00:12:58;;;;;;;;;;;15.00;97.30;;;;;;5018222;28;19913;-89
2021/08/17 00:15:23;;;;;;;;;;;15.00;97.30;;;;;;5017312;28;20004;-89
2021/08/17 00:17:49;;;;;;;;;;;14.90;97.70;;;;;;5017422;28;19910;-89
2021/08/17 00:20:14;;;;;;;;;;;14.90;97.50;;;;;;5017337;28;19909;-88
2021/08/17 00:22:40;;;;;;;;;;;14.90;97.70;;;;;;5018810;28;20079;-89
2021/08/17 00:25:06;;;;;;;;;;;14.80;97.70;;;;;;5017704;28;20008;-88
2021/08/17 00:27:32;;;;;;;;;;;14.80;97.70;;;;;;5017501;28;19932;-89
2021/08/17 00:29:57;;;;;;;;;;;14.90;97.90;;;;;;5016285;28;19940;-89
2021/08/17 00:32:24;;;;;;;;;;;14.90;97.90;;;;;;5017157;28;19956;-89
2021/08/17 00:34:49;;;;;;;;;;;14.90;97.90;;;;;;5018531;28;19910;-89
2021/08/17 00:37:16;;;;;;;;;;;14.80;98.00;;;;;;5016836;28;19910;-89
2021/08/17 00:39:42;;;;;;;;;;;14.80;98.20;;;;;;5016383;28;19918;-89
2021/08/17 00:42:08;;;;;;;;;;;14.80;98.20;;;;;;5017403;28;19913;-89
2021/08/17 00:44:34;;;;;;;;;;;14.80;98.30;;;;;;5017813;28;20342;-89
2021/08/17 00:46:59;;;;;;;;;;;14.70;98.30;;;;;;5017766;28;19917;-89
2021/08/17 00:49:26;;;;;;;;;;;14.80;98.50;;;;;;5016287;28;20283;-89
2021/08/17 00:51:52;;;;;;;;;;;14.70;98.60;;;;;;5018439;28;19929;-89
2021/08/17 00:54:18;;;;;;;;;;;14.70;98.70;;;;;;5016867;28;19916;-89
2021/08/17 00:56:43;;;;;;;;;;;14.70;98.70;;;;;;5016514;28;19909;-89
2021/08/17 00:59:09;;;;;;;;;;;14.70;98.80;;;;;;5016131;28;20293;-88
2021/08/17 01:01:35;;;;;;;;;;;14.70;98.80;;;;;;5016484;28;20264;-88
2021/08/17 01:04:01;;;;;;;;;;;14.60;98.90;;;;;;5017758;28;19913;-89
2021/08/17 01:06:27;;;;;;;;;;;14.70;99.00;;;;;;5018433;28;19977;-89
2021/08/17 01:08:52;;;;;;;;;;;14.70;99.00;;;;;;5017343;28;19949;-90
2021/08/17 01:11:17;;;;;;;;;;;14.70;99.10;;;;;;5016282;28;20374;-89
2021/08/17 01:13:43;;;;;;;;;;;14.60;99.20;;;;;;5016309;28;19956;-89
2021/08/17 01:16:08;;;;;;;;;;;14.60;99.30;;;;;;5016039;28;19909;-89
2021/08/17 01:18:34;;;;;;;;;;;14.60;99.40;;;;;;5017575;28;19909;-89
2021/08/17 01:21:00;;;;;;;;;;;14.60;99.60;;;;;;5017343;28;19910;-89
2021/08/17 01:23:27;;;;;;;;;;;14.60;99.80;;;;;;5017348;28;20378;-88
2021/08/17 01:25:53;;;;;;;;;;;14.60;99.70;;;;;;5016379;28;20294;-88
2021/08/17 01:28:19;;;;;;;;;;;14.60;99.80;;;;;;5017229;28;19953;-89
2021/08/17 01:30:44;;;;;;;;;;;14.60;99.90;;;;;;5013877;28;20371;-89
2021/08/17 01:33:10;;;;;;;;;;;14.60;99.90;;;;;;5013448;28;19910;-89
2021/08/17 01:35:35;;;;;;;;;;;14.60;99.90;;;;;;5013468;28;20333;-89
2021/08/17 01:38:04;;;;;;;;;;;14.60;99.90;;;;;;5013168;28;20363;-90
2021/08/17 01:40:30;;;;;;;;;;;14.60;99.90;;;;;;5012988;28;19917;-89
2021/08/17 01:42:56;;;;;;;;;;;14.60;99.90;;;;;;5013294;28;19914;-89
2021/08/17 01:45:21;;;;;;;;;;;14.60;99.90;;;;;;5014313;28;19963;-89
2021/08/17 01:47:47;;;;;;;;;;;14.50;99.90;;;;;;5012995;28;19909;-89
2021/08/17 01:50:13;;;;;;;;;;;14.60;99.90;;;;;;5013004;28;20415;-89
2021/08/17 01:52:39;;;;;;;;;;;14.60;99.90;;;;;;5014358;28;19910;-89
2021/08/17 01:55:05;;;;;;;;;;;14.50;99.90;;;;;;5012982;28;19910;-89
2021/08/17 01:57:30;;;;;;;;;;;14.60;99.90;;;;;;5012775;28;19956;-89
2021/08/17 01:59:56;;;;;;;;;;;14.60;99.90;;;;;;5013016;28;19918;-89
2021/08/17 02:02:21;;;;;;;;;;;14.60;99.90;;;;;;5014068;28;20333;-89
2021/08/17 02:04:47;;;;;;;;;;;14.60;99.90;;;;;;5012711;28;20362;-89
2021/08/17 02:07:12;;;;;;;;;;;14.60;99.90;;;;;;5012837;28;19916;-88
2021/08/17 02:09:38;;;;;;;;;;;14.60;99.90;;;;;;5013821;28;19920;-89
2021/08/17 02:12:03;;;;;;;;;;;14.60;99.90;;;;;;5012581;28;20330;-89
2021/08/17 02:14:29;;;;;;;;;;;14.60;99.90;;;;;;5012582;28;20012;-88
2021/08/17 02:16:54;;;;;;;;;;;14.60;99.90;;;;;;5012765;28;19913;-89
2021/08/17 02:19:20;;;;;;;;;;;14.60;99.90;;;;;;5012494;28;19955;-89
2021/08/17 02:21:45;;;;;;;;;;;14.60;99.90;;;;;;5012506;28;19917;-89
2021/08/17 02:24:11;;;;;;;;;;;14.60;99.90;;;;;;5012477;28;19920;-89
2021/08/17 02:26:36;;;;;;;;;;;14.50;99.90;;;;;;5012665;28;20390;-89
2021/08/17 02:29:02;;;;;;;;;;;14.60;99.90;;;;;;5012195;28;19956;-89
2021/08/17 02:31:27;;;;;;;;;;;14.60;99.90;;;;;;5011741;28;20039;-88
2021/08/17 02:33:53;;;;;;;;;;;14.60;99.90;;;;;;5012140;28;19909;-89
2021/08/17 02:36:18;;;;;;;;;;;14.60;99.90;;;;;;5012187;28;19910;-88
2021/08/17 02:38:44;;;;;;;;;;;14.60;99.90;;;;;;5012060;28;20369;-89
2021/08/17 02:41:09;;;;;;;;;;;14.60;99.90;;;;;;5013327;28;19917;-89
2021/08/17 02:43:35;;;;;;;;;;;14.60;99.90;;;;;;5012104;28;19956;-89
2021/08/17 02:46:00;;;;;;;;;;;14.60;99.90;;;;;;5012153;28;19914;-89
2021/08/17 02:48:26;;;;;;;;;;;14.60;99.90;;;;;;5012058;28;19913;-89
2021/08/17 02:50:52;;;;;;;;;;;14.60;99.90;;;;;;5011952;28;19916;-88
2021/08/17 02:53:17;;;;;;;;;;;14.50;99.90;;;;;;5011957;28;19936;-89
2021/08/17 02:55:43;;;;;;;;;;;14.60;99.90;;;;;;5011919;28;19916;-89
2021/08/17 02:58:11;;;;;;;;;;;14.50;99.90;;;;;;5010830;28;19914;-89
2021/08/17 03:00:37;;;;;;;;;;;14.60;99.90;;;;;;5011095;28;19939;-89
2021/08/17 03:03:03;;;;;;;;;;;14.60;99.90;;;;;;5011883;28;19909;-89
2021/08/17 03:05:28;;;;;;;;;;;14.50;99.90;;;;;;5012818;28;20482;-90
2021/08/17 03:07:55;;;;;;;;;;;14.50;99.90;;;;;;5012744;28;20004;-89
2021/08/17 03:10:21;;;;;;;;;;;14.60;99.90;;;;;;5013814;28;19909;-89
2021/08/17 03:12:47;;;;;;;;;;;14.60;99.90;;;;;;5012847;28;19909;-90
2021/08/17 03:15:13;;;;;;;;;;;14.60;99.90;;;;;;5012740;28;19917;-90
2021/08/17 03:17:39;;;;;;;;;;;14.60;99.90;;;;;;5013513;28;19914;-89
2021/08/17 03:20:06;;;;;;;;;;;14.60;99.90;;;;;;5011734;28;20385;-89
2021/08/17 03:22:32;;;;;;;;;;;14.60;99.90;;;;;;5011679;28;19945;-89
2021/08/17 03:24:57;;;;;;;;;;;14.50;99.90;;;;;;5012918;28;19965;-89
2021/08/17 03:27:23;;;;;;;;;;;14.50;99.90;;;;;;5011713;28;20285;-89
2021/08/17 03:29:48;;;;;;;;;;;14.60;99.90;;;;;;5011776;28;19913;-89
2021/08/17 03:32:14;;;;;;;;;;;14.60;99.90;;;;;;5011552;28;19939;-89
2021/08/17 03:34:39;;;;;;;;;;;14.60;99.90;;;;;;5011650;28;20009;-89
2021/08/17 03:37:05;;;;;;;;;;;14.60;99.90;;;;;;5012667;28;19910;-89
2021/08/17 03:39:30;;;;;;;;;;;14.60;99.90;;;;;;5012787;28;19921;-89
2021/08/17 03:41:56;;;;;;;;;;;14.60;99.90;;;;;;5014841;28;19909;-89
2021/08/17 03:44:22;;;;;;;;;;;14.60;99.90;;;;;;5016463;28;19913;-89
2021/08/17 03:46:47;;;;;;;;;;;14.60;99.90;;;;;;5015420;28;20381;-89
2021/08/17 03:49:13;;;;;;;;;;;14.50;99.90;;;;;;5014774;28;19956;-89
2021/08/17 03:51:38;;;;;;;;;;;14.60;99.90;;;;;;5016312;28;19941;-89
2021/08/17 03:54:04;;;;;;;;;;;14.60;99.90;;;;;;5015123;28;19909;-89
2021/08/17 03:56:29;;;;;;;;;;;14.60;99.90;;;;;;5014993;28;19909;-89
2021/08/17 03:58:55;;;;;;;;;;;14.60;99.90;;;;;;5015157;28;19980;-89
2021/08/17 04:01:20;;;;;;;;;;;14.60;99.90;;;;;;5015278;28;19917;-89
2021/08/17 04:03:46;;;;;;;;;;;14.60;99.90;;;;;;5015197;28;19909;-89
2021/08/17 04:06:11;;;;;;;;;;;14.60;99.90;;;;;;5015128;28;19909;-89
2021/08/17 04:08:37;;;;;;;;;;;14.60;99.90;;;;;;5015309;28;20278;-89
2021/08/17 04:11:03;;;;;;;;;;;14.60;99.90;;;;;;5015001;28;19940;-90
2021/08/17 04:13:28;;;;;;;;;;;14.60;99.90;;;;;;5016162;28;19914;-89
2021/08/17 04:15:54;;;;;;;;;;;14.60;99.90;;;;;;5014787;28;19909;-89
2021/08/17 04:18:19;;;;;;;;;;;14.60;99.90;;;;;;5014747;28;19909;-89
2021/08/17 04:20:45;;;;;;;;;;;14.60;99.90;;;;;;5014767;28;19913;-89
2021/08/17 04:23:10;;;;;;;;;;;14.60;99.90;;;;;;5014672;28;20286;-89
2021/08/17 04:25:36;;;;;;;;;;;14.50;99.90;;;;;;5014659;28;20366;-89
2021/08/17 04:28:01;;;;;;;;;;;14.60;99.90;;;;;;5016271;28;19916;-89
2021/08/17 04:30:27;;;;;;;;;;;14.50;99.90;;;;;;5015052;28;19910;-89
2021/08/17 04:32:52;;;;;;;;;;;14.50;99.90;;;;;;5015743;28;19987;-90
2021/08/17 04:35:19;;;;;;;;;;;14.60;99.90;;;;;;5014897;28;19914;-89
2021/08/17 04:37:46;;;;;;;;;;;14.60;99.90;;;;;;5014422;28;19913;-89
2021/08/17 04:40:11;;;;;;;;;;;14.50;99.90;;;;;;5014061;28;20372;-89
2021/08/17 04:42:37;;;;;;;;;;;14.60;99.90;;;;;;5014331;28;19916;-88
2021/08/17 04:45:03;;;;;;;;;;;14.60;99.90;;;;;;5014185;28;19920;-89
2021/08/17 04:47:28;;;;;;;;;;;14.60;99.90;;;;;;5014093;28;19913;-89
2021/08/17 04:49:54;;;;;;;;;;;14.60;99.90;;;;;;5014160;28;20378;-89
2021/08/17 04:52:19;;;;;;;;;;;14.60;99.90;;;;;;5013821;28;19909;-89
2021/08/17 04:54:45;;;;;;;;;;;14.60;99.90;;;;;;5015172;28;19910;-90
2021/08/17 04:57:13;;;;;;;;;;;14.60;99.90;;;;;;5016739;28;19909;-88
2021/08/17 04:59:39;;;;;;;;;;;14.60;99.90;;;;;;5016014;28;20374;-89
2021/08/17 05:02:04;;;;;;;;;;;14.60;99.90;;;;;;5016716;28;19916;-89
2021/08/17 05:04:30;;;;;;;;;;;14.60;99.90;;;;;;5016678;28;19914;-89
2021/08/17 05:06:55;;;;;;;;;;;14.60;99.90;;;;;;5016537;28;19917;-89
2021/08/17 05:09:22;;;;;;;;;;;14.70;99.90;;;;;;5015825;28;19948;-89
2021/08/17 05:11:48;;;;;;;;;;;14.70;99.90;;;;;;5017403;28;19919;-89
2021/08/17 05:14:13;;;;;;;;;;;14.70;99.90;;;;;;5016570;28;20004;-89
2021/08/17 05:16:39;;;;;;;;;;;14.70;99.90;;;;;;5016649;28;19916;-89
2021/08/17 05:19:05;;;;;;;;;;;14.70;99.90;;;;;;5015798;28;19929;-89
2021/08/17 05:21:30;;;;;;;;;;;14.70;99.90;;;;;;5016406;28;20282;-88
2021/08/17 05:23:56;;;;;;;;;;;14.70;99.90;;;;;;5015974;28;19964;-88
2021/08/17 05:26:22;;;;;;;;;;;14.70;99.90;;;;;;5016192;28;19963;-90
2021/08/17 05:28:48;;;;;;;;;;;14.80;99.90;;;;;;5015629;28;19914;-90
2021/08/17 05:31:13;;;;;;;;;;;14.80;99.90;;;;;;5016809;28;19910;-89
2021/08/17 05:33:39;;;;;;;;;;;14.80;99.90;;;;;;5016626;28;20377;-89
2021/08/17 05:36:04;;;;;;;;;;;14.80;99.90;;;;;;5015999;28;19955;-89
2021/08/17 05:38:30;;;;;;;;;;;14.90;99.90;;;;;;5016042;28;19910;-88
2021/08/17 05:40:55;;;;;;;;;;;14.90;99.90;;;;;;5016546;28;20020;-89
2021/08/17 05:43:21;;;;;;;;;;;14.90;99.90;;;;;;5017700;28;19963;-88
2021/08/17 05:45:46;;;;;;;;;;;14.90;99.90;;;;;;5015796;28;19939;-89
2021/08/17 05:48:12;;;;;;;;;;;14.90;99.90;;;;;;5014988;28;19909;-89
2021/08/17 05:50:37;;;;;;;;;;;14.90;99.90;;;;;;5016031;28;19913;-88
2021/08/17 05:53:03;;;;;;;;;;;14.90;99.90;;;;;;5015009;28;20379;-88
2021/08/17 05:55:28;;;;;;;;;;;14.90;99.90;;;;;;5015122;28;19910;-90
2021/08/17 05:57:55;;;;;;;;;;;14.90;99.90;;;;;;5015200;28;19941;-89
2021/08/17 06:00:21;;;;;;;;;;;14.90;99.90;;;;;;5014384;28;19921;-88
2021/08/17 06:02:46;;;;;;;;;;;15.00;99.90;;;;;;5014807;28;19910;-88
2021/08/17 06:05:12;;;;;;;;;;;15.00;99.90;;;;;;5013874;28;19963;-88
2021/08/17 06:07:37;;;;;;;;;;;14.90;99.90;;;;;;5015115;28;19914;-89
2021/08/17 06:10:04;;;;;;;;;;;15.00;99.90;;;;;;5014365;28;19909;-89
2021/08/17 06:12:29;;;;;;;;;;;15.00;99.90;;;;;;5015681;28;20004;-90
2021/08/17 06:14:54;;;;;;;;;;;15.00;99.90;;;;;;5015215;28;19953;-89
2021/08/17 06:17:20;;;;;;;;;;;15.00;99.90;;;;;;5014890;28;20366;-89
2021/08/17 06:19:45;;;;;;;;;;;15.00;99.90;;;;;;5013848;28;19910;-88
2021/08/17 06:22:11;;;;;;;;;;;15.00;99.90;;;;;;5014872;28;19964;-89
2021/08/17 06:24:37;;;;;;;;;;;15.10;99.90;;;;;;5014584;28;19914;-89
2021/08/17 06:27:02;;;;;;;;;;;15.10;99.90;;;;;;5016286;28;19948;-89
2021/08/17 06:29:28;;;;;;;;;;;15.10;99.90;;;;;;5014380;28;19949;-89
2021/08/17 06:31:53;;;;;;;;;;;15.20;99.90;;;;;;5015354;28;20278;-89
2021/08/17 06:34:19;;;;;;;;;;;15.20;99.90;;;;;;5013996;28;19909;-89
2021/08/17 06:36:44;;;;;;;;;;;15.20;99.90;;;;;;5013389;28;19945;-89
2021/08/17 06:39:10;;;;;;;;;;;15.20;99.90;;;;;;5012774;28;19935;-89
2021/08/17 06:41:35;;;;;;;;;;;15.30;99.90;;;;;;5012099;28;20512;-89
2021/08/17 06:44:01;;;;;;;;;;;15.30;99.90;;;;;;5012047;28;20164;-89
2021/08/17 06:46:27;;;;;;;;;;;15.30;99.90;;;;;;5013308;28;19910;-89
2021/08/17 06:48:53;;;;;;;;;;;15.40;99.90;;;;;;5012662;28;19959;-90
2021/08/17 06:51:19;;;;;;;;;;;15.40;99.90;;;;;;5012719;28;19924;-89
2021/08/17 06:53:44;;;;;;;;;;;15.40;99.90;;;;;;5011662;28;19995;-89
2021/08/17 06:56:10;;;;;;;;;;;15.40;99.90;;;;;;5011828;28;19910;-90
2021/08/17 06:58:35;;;;;;;;;;;15.50;99.90;;;;;;5013049;28;20301;-89
2021/08/17 07:01:02;;;;;;;;;;;15.50;99.90;;;;;;5013807;28;19941;-89
2021/08/17 07:03:27;;;;;;;;;;;15.60;99.90;;;;;;5014588;28;19910;-89
2021/08/17 07:05:53;;;;;;;;;;;15.60;99.90;;;;;;5015481;28;20425;-89
2021/08/17 07:08:19;;;;;;;;;;;15.60;99.90;;;;;;5014063;28;19910;-89
2021/08/17 07:10:44;;;;;;;;;;;15.60;99.90;;;;;;5013917;28;19906;-89
2021/08/17 07:13:10;;;;;;;;;;;15.70;99.90;;;;;;5013819;28;19992;-89
2021/08/17 07:15:36;;;;;;;;;;;15.70;99.90;;;;;;5014960;28;19918;-88
2021/08/17 07:18:01;;;;;;;;;;;15.80;99.90;;;;;;5014628;28;20320;-89
2021/08/17 07:20:27;;;;;;;;;;;15.80;99.90;;;;;;5014344;28;19913;-89
2021/08/17 07:22:52;;;;;;;;;;;15.90;99.90;;;;;;5014198;28;19910;-89
2021/08/17 07:25:18;;;;;;;;;;;15.90;99.90;;;;;;5013510;28;19936;-89
2021/08/17 07:27:45;;;;;;;;;;;15.90;99.90;;;;;;5014468;28;19917;-89
2021/08/17 07:30:12;;;;;;;;;;;15.90;99.90;;;;;;5013458;28;20393;-89
2021/08/17 07:32:38;;;;;;;;;;;16.00;99.90;;;;;;5014135;28;19916;-89
2021/08/17 07:35:04;;;;;;;;;;;16.10;99.90;;;;;;5014254;28;19953;-89
2021/08/17 07:37:30;;;;;;;;;;;16.10;99.90;;;;;;5013718;28;19910;-89
2021/08/17 07:39:55;;;;;;;;;;;16.10;99.90;;;;;;5014121;28;19921;-89
2021/08/17 07:42:21;;;;;;;;;;;16.20;99.90;;;;;;5011503;28;19909;-89
2021/08/17 07:44:46;;;;;;;;;;;16.20;99.90;;;;;;5011591;28;19914;-89
2021/08/17 07:47:12;;;;;;;;;;;16.30;99.90;;;;;;5011869;28;20282;-89
2021/08/17 07:49:37;;;;;;;;;;;16.40;99.90;;;;;;5011472;28;20281;-89
2021/08/17 07:52:03;;;;;;;;;;;16.50;99.90;;;;;;5011325;28;20367;-89
2021/08/17 07:54:28;;;;;;;;;;;16.50;99.90;;;;;;5011464;28;19960;-89
2021/08/17 07:56:55;;;;;;;;;;;16.50;99.90;;;;;;5011366;28;19957;-89
2021/08/17 07:59:21;;;;;;;;;;;16.50;99.90;;;;;;5011190;28;19910;-89
2021/08/17 08:01:47;;;;;;;;;;;16.60;99.90;;;;;;5011188;28;19913;-89
2021/08/17 08:04:12;;;;;;;;;;;16.60;99.90;;;;;;5012255;28;19992;-90
2021/08/17 08:06:38;;;;;;;;;;;16.70;99.90;;;;;;5011087;28;19913;-89
2021/08/17 08:09:04;;;;;;;;;;;16.70;99.90;;;;;;5010590;28;19914;-89
2021/08/17 08:11:30;;;;;;;;;;;16.70;99.90;;;;;;5012279;28;19941;-89
2021/08/17 08:13:57;;;;;;;;;;;16.70;99.90;;;;;;5013629;28;20256;-89
2021/08/17 08:16:23;;;;;;;;;;;16.60;99.90;;;;;;5011788;28;19920;-90
2021/08/17 08:18:49;;;;;;;;;;;16.60;99.90;;;;;;5011336;28;20435;-89
2021/08/17 08:21:14;;;;;;;;;;;16.60;99.90;;;;;;5011110;28;19996;-89
2021/08/17 08:23:40;;;;;;;;;;;16.50;99.90;;;;;;5011199;28;19960;-89
2021/08/17 08:26:05;;;;;;;;;;;16.50;99.90;;;;;;5011193;28;20382;-89
2021/08/17 08:28:31;;;;;;;;;;;16.50;99.90;;;;;;5012754;28;19987;-89
2021/08/17 08:30:56;;;;;;;;;;;16.50;99.90;;;;;;5015851;28;19909;-89
2021/08/17 08:33:22;;;;;;;;;;;16.50;99.90;;;;;;5014656;28;19918;-89
2021/08/17 08:35:47;;;;;;;;;;;16.60;99.90;;;;;;5016927;28;19956;-88
2021/08/17 08:38:13;;;;;;;;;;;16.60;99.90;;;;;;5016618;28;20112;-90
2021/08/17 08:40:38;;;;;;;;;;;16.60;99.90;;;;;;5017847;28;20386;-88
2021/08/17 08:43:04;;;;;;;;;;;16.70;99.90;;;;;;5016792;28;19964;-88
2021/08/17 08:45:29;;;;;;;;;;;16.70;99.90;;;;;;5016818;28;19980;-89
2021/08/17 08:47:55;;;;;;;;;;;16.70;99.90;;;;;;5016999;28;19974;-89
2021/08/17 08:50:21;;;;;;;;;;;16.70;99.90;;;;;;5016201;28;19910;-89
2021/08/17 08:52:46;;;;;;;;;;;16.70;99.90;;;;;;5016245;28;20394;-89
2021/08/17 08:55:12;;;;;;;;;;;16.80;99.90;;;;;;5016586;28;20204;-89
2021/08/17 08:57:38;;;;;;;;;;;16.80;99.90;;;;;;5016518;28;19913;-88
2021/08/17 09:00:05;;;;;;;;;;;16.80;99.90;;;;;;5016712;28;19909;-88
2021/08/17 09:02:30;;;;;;;;;;;16.80;99.90;;;;;;5017222;28;19985;-88
2021/08/17 09:04:57;;;;;;;;;;;16.80;99.90;;;;;;5017603;28;19968;-89
2021/08/17 09:07:33;;;;;;;;;;;16.90;99.90;;;;;;5016197;28;19909;-89
2021/08/17 09:10:22;;;;;;;;;;;16.80;99.90;;;;;;5015533;28;19909;-89
2021/08/17 09:12:55;;;;;;;;;;;16.80;99.90;;;;;;5010729;28;20480;-89
2021/08/17 09:15:22;;;;;;;;;;;16.90;99.90;;;;;;5016316;28;19917;-89
2021/08/17 09:17:58;;;;;;;;;;;16.90;99.90;;;;;;5016419;28;19964;-89
2021/08/17 09:20:42;;;;;;;;;;;16.90;99.90;;;;;;5015443;28;19984;-89
2021/08/17 09:23:20;;;;;;;;;;;16.90;99.90;;;;;;5015936;28;19916;-88
2021/08/17 09:25:46;;;;;;;;;;;16.90;99.90;;;;;;5016306;28;19921;-89
2021/08/17 09:28:26;;;;;;;;;;;17.00;99.90;;;;;;5016060;28;19909;-89
2021/08/17 09:30:52;;;;;;;;;;;17.00;99.90;;;;;;5015038;28;19909;-88
2021/08/17 09:33:17;;;;;;;;;;;17.00;99.90;;;;;;5015715;28;19932;-89
2021/08/17 09:35:43;;;;;;;;;;;17.00;99.90;;;;;;5015507;28;19914;-88
2021/08/17 09:38:10;;;;;;;;;;;17.10;99.90;;;;;;5016944;28;19910;-89
2021/08/17 09:40:35;;;;;;;;;;;17.20;99.70;;;;;;5016373;28;20402;-89
2021/08/17 09:43:17;;;;;;;;;;;17.20;99.00;;;;;;5015134;28;19983;-89
2021/08/17 09:45:44;;;;;;;;;;;17.30;98.70;;;;;;5016768;28;19914;-88
2021/08/17 09:48:11;;;;;;;;;;;17.40;98.40;;;;;;5015461;28;19913;-89
2021/08/17 09:50:41;;;;;;;;;;;17.40;98.60;;;;;;5014990;28;19957;-90
2021/08/17 09:53:18;;;;;;;;;;;17.30;98.00;;;;;;5015196;28;19910;-89
2021/08/17 09:55:43;;;;;;;;;;;17.30;98.00;;;;;;5015099;28;19916;-89
2021/08/17 09:58:19;;;;;;;;;;;17.30;98.20;;;;;;5015044;28;20004;-89
2021/08/17 10:00:45;;;;;;;;;;;17.30;97.90;;;;;;5014736;28;20445;-89
2021/08/17 10:03:11;;;;;;;;;;;17.30;97.90;;;;;;5015349;28;19977;-89
2021/08/17 10:05:38;;;;;;;;;;;17.30;97.90;;;;;;5015344;28;19956;-89
2021/08/17 10:08:04;;;;;;;;;;;17.30;98.10;;;;;;5015511;28;19917;-89
2021/08/17 10:10:30;;;;;;;;;;;17.30;98.20;;;;;;5014684;28;20370;-88
2021/08/17 10:12:55;;;;;;;;;;;17.30;98.10;;;;;;5014654;28;19921;-87
2021/08/17 10:15:21;;;;;;;;;;;17.30;97.30;;;;;;5016094;28;19910;-89
2021/08/17 10:17:46;;;;;;;;;;;17.30;97.00;;;;;;5016508;28;19909;-89
2021/08/17 10:20:14;;;;;;;;;;;17.30;96.80;;;;;;5015555;28;20454;-89
2021/08/17 10:22:40;;;;;;;;;;;17.30;96.60;;;;;;5015086;28;19910;-88
2021/08/17 10:25:08;;;;;;;;;;;17.30;96.90;;;;;;5015083;28;19972;-89
2021/08/17 10:27:35;;;;;;;;;;;17.40;97.10;;;;;;5014907;28;19909;-89
2021/08/17 10:30:01;;;;;;;;;;;17.40;97.30;;;;;;5014709;28;19960;-89
2021/08/17 10:32:43;;;;;;;;;;;17.40;97.20;;;;;;5014493;28;19909;-89
2021/08/17 10:35:31;;;;;;;;;;;17.40;96.80;;;;;;5014495;28;19909;-90
2021/08/17 10:38:12;;;;;;;;;;;17.50;96.50;;;;;;5016619;28;19910;-89
2021/08/17 10:40:53;;;;;;;;;;;17.50;96.10;;;;;;5014956;28;19918;-89
2021/08/17 10:43:21;;;;;;;;;;;17.50;96.10;;;;;;5015734;28;19925;-88
2021/08/17 10:45:54;;;;;;;;;;;17.50;96.00;;;;;;5026298;28;19936;-90
2021/08/17 10:48:38;;;;;;;;;;;17.50;96.20;;;;;;5032956;28;19975;-90
2021/08/17 10:51:07;;;;;;;;;;;17.50;96.10;;;;;;5034565;28;19929;-89
2021/08/17 10:53:40;;;;;;;;;;;17.50;95.90;;;;;;5037382;28;19914;-90
2021/08/17 10:56:16;;;;;;;;;;;17.50;96.20;;;;;;5031073;28;19921;-89
2021/08/17 10:58:43;;;;;;;;;;;17.50;96.10;;;;;;5013697;28;19932;-90
2021/08/17 11:01:08;;;;;;;;;;;17.50;96.20;;;;;;5013107;28;19914;-89
2021/08/17 11:03:43;;;;;;;;;;;17.50;96.10;;;;;;5013114;28;19909;-89
2021/08/17 11:06:09;;;;;;;;;;;17.60;95.90;;;;;;5011820;28;19924;-89
2021/08/17 11:08:36;;;;;;;;;;;17.60;95.70;;;;;;5011750;28;20321;-89
2021/08/17 11:11:03;;;;;;;;;;;17.50;96.00;;;;;;5011887;28;19932;-90
2021/08/17 11:13:29;;;;;;;;;;;17.50;95.90;;;;;;5011862;28;20044;-89
2021/08/17 11:16:05;;;;;;;;;;;17.50;96.10;;;;;;5011739;28;20049;-89
2021/08/17 11:18:30;;;;;;;;;;;17.50;96.10;;;;;;5012932;28;19909;-89
2021/08/17 11:20:56;;;;;;;;;;;17.50;96.20;;;;;;5011853;28;20325;-89
2021/08/17 11:23:22;;;;;;;;;;;17.50;96.10;;;;;;5011721;28;19960;-90
2021/08/17 11:25:47;;;;;;;;;;;17.50;96.20;;;;;;5011709;28;19922;-89
2021/08/17 11:28:13;;;;;;;;;;;17.50;96.10;;;;;;5011628;28;20286;-89
2021/08/17 11:30:38;;;;;;;;;;;17.50;95.80;;;;;;5011657;28;19967;-90
2021/08/17 11:33:04;;;;;;;;;;;17.40;95.80;;;;;;5011764;28;19909;-89
2021/08/17 11:35:30;;;;;;;;;;;17.50;95.70;;;;;;5013040;28;20374;-89
2021/08/17 11:37:57;;;;;;;;;;;17.50;95.70;;;;;;5012151;28;19921;-89
2021/08/17 11:40:23;;;;;;;;;;;17.50;95.40;;;;;;5011709;28;19921;-90
2021/08/17 11:42:50;;;;;;;;;;;17.60;95.40;;;;;;5011442;28;19913;-90
2021/08/17 11:45:16;;;;;;;;;;;17.60;95.40;;;;;;5012537;28;20004;-90
2021/08/17 11:47:43;;;;;;;;;;;17.70;95.30;;;;;;5011390;28;20382;-88
2021/08/17 11:50:10;;;;;;;;;;;17.70;95.00;;;;;;5012511;28;19909;-89
2021/08/17 11:52:37;;;;;;;;;;;17.70;95.10;;;;;;5011711;28;19931;-89
2021/08/17 11:55:07;;;;;;;;;;;17.60;95.10;;;;;;5011226;28;19916;-89
2021/08/17 11:57:37;;;;;;;;;;;17.60;95.40;;;;;;5011078;28;19956;-89
2021/08/17 12:00:10;;;;;;;;;;;17.60;95.10;;;;;;5012216;28;19949;-90
2021/08/17 12:02:36;;;;;;;;;;;17.50;95.20;;;;;;5011386;28;19909;-89
2021/08/17 12:05:03;;;;;;;;;;;17.50;95.20;;;;;;5014946;28;20381;-89
2021/08/17 12:07:30;;;;;;;;;;;17.40;95.20;;;;;;5016187;28;20437;-88
2021/08/17 12:10:03;;;;;;;;;;;17.40;95.10;;;;;;5014859;28;19914;-89
2021/08/17 12:12:47;;;;;;;;;;;17.40;95.30;;;;;;5014719;28;19913;-88
2021/08/17 12:15:13;;;;;;;;;;;17.30;95.70;;;;;;5015006;28;19979;-89
2021/08/17 12:17:38;;;;;;;;;;;17.20;96.00;;;;;;5016080;28;20378;-89
2021/08/17 12:20:06;;;;;;;;;;;17.20;96.10;;;;;;5015863;28;19955;-89
2021/08/17 12:22:32;;;;;;;;;;;17.20;96.20;;;;;;5014777;28;19910;-89
2021/08/17 12:24:58;;;;;;;;;;;17.10;96.60;;;;;;5015934;28;19913;-89
2021/08/17 12:27:25;;;;;;;;;;;17.10;97.80;;;;;;5015959;28;19910;-88
2021/08/17 12:29:51;;;;;;;;;;;17.00;98.30;;;;;;5014467;28;20008;-88
2021/08/17 12:32:28;;;;;;;;;;;17.00;99.20;;;;;;5015843;28;19949;-88
2021/08/17 12:35:00;;;;;;;;;;;16.90;99.80;;;;;;5014525;28;19910;-89
2021/08/17 12:37:27;;;;;;;;;;;16.80;99.90;;;;;;5015612;28;19910;-89
2021/08/17 12:39:57;;;;;;;;;;;16.70;99.90;;;;;;5014179;28;19917;-89
2021/08/17 12:42:22;;;;;;;;;;;16.60;99.90;;;;;;5016947;28;19910;-89
2021/08/17 12:44:49;;;;;;;;;;;16.60;99.90;;;;;;5018945;28;20000;-89
2021/08/17 12:47:15;;;;;;;;;;;16.60;99.90;;;;;;5017212;28;19910;-89
2021/08/17 12:49:44;;;;;;;;;;;16.50;99.90;;;;;;5013971;28;20005;-90
2021/08/17 12:52:28;;;;;;;;;;;16.50;99.90;;;;;;5014148;28;19909;-88
2021/08/17 12:54:55;;;;;;;;;;;16.50;99.90;;;;;;5014093;28;19939;-89
2021/08/17 12:57:25;;;;;;;;;;;16.50;99.90;;;;;;5014118;28;20369;-89
2021/08/17 12:59:51;;;;;;;;;;;16.50;99.90;;;;;;5014166;28;20001;-89
2021/08/17 13:02:17;;;;;;;;;;;16.40;99.90;;;;;;5013930;28;19913;-89
2021/08/17 13:04:43;;;;;;;;;;;16.40;99.90;;;;;;5013855;28;19972;-89
2021/08/17 13:07:08;;;;;;;;;;;16.40;99.90;;;;;;5013958;28;19917;-89
2021/08/17 13:09:34;;;;;;;;;;;16.30;99.90;;;;;;5013759;28;20375;-89
2021/08/17 13:12:02;;;;;;;;;;;16.30;99.90;;;;;;5013865;28;19909;-89
2021/08/17 13:14:29;;;;;;;;;;;16.30;99.90;;;;;;5013236;28;19915;-89
2021/08/17 13:16:54;;;;;;;;;;;16.30;99.90;;;;;;5013776;28;19909;-88
2021/08/17 13:19:20;;;;;;;;;;;16.30;99.90;;;;;;5013603;28;19916;-89
2021/08/17 13:21:45;;;;;;;;;;;16.20;99.90;;;;;;5013748;28;20294;-89
2021/08/17 13:24:11;;;;;;;;;;;16.30;99.90;;;;;;5013542;28;19909;-89
2021/08/17 13:26:37;;;;;;;;;;;16.20;99.90;;;;;;5013650;28;19910;-88
2021/08/17 13:29:02;;;;;;;;;;;16.20;99.90;;;;;;5013722;28;19940;-89
2021/08/17 13:31:28;;;;;;;;;;;16.30;99.90;;;;;;5013775;28;19913;-89
2021/08/17 13:33:54;;;;;;;;;;;16.20;99.90;;;;;;5013461;28;19909;-88
2021/08/17 13:36:19;;;;;;;;;;;16.30;99.90;;;;;;5014367;28;19913;-88
2021/08/17 13:38:45;;;;;;;;;;;16.30;99.90;;;;;;5013226;28;19913;-88
2021/08/17 13:41:10;;;;;;;;;;;16.30;99.90;;;;;;5013199;28;20208;-89
2021/08/17 13:43:36;;;;;;;;;;;16.30;99.90;;;;;;5013431;28;20000;-89
2021/08/17 13:46:01;;;;;;;;;;;16.30;99.90;;;;;;5013015;28;20019;-90
2021/08/17 13:48:27;;;;;;;;;;;16.30;99.90;;;;;;5012991;28;19960;-89
2021/08/17 13:50:54;;;;;;;;;;;16.40;99.90;;;;;;5013035;28;19929;-88
2021/08/17 13:53:19;;;;;;;;;;;16.40;99.90;;;;;;5013026;28;19975;-89
2021/08/17 13:55:45;;;;;;;;;;;16.50;99.90;;;;;;5014240;28;19941;-89
2021/08/17 13:58:10;;;;;;;;;;;16.60;99.90;;;;;;5013192;28;20000;-89
2021/08/17 14:00:36;;;;;;;;;;;16.60;99.90;;;;;;5012769;28;19909;-89
2021/08/17 14:03:02;;;;;;;;;;;16.60;99.90;;;;;;5012957;28;20294;-89
2021/08/17 14:05:28;;;;;;;;;;;16.60;99.90;;;;;;5012762;28;19933;-90
2021/08/17 14:07:53;;;;;;;;;;;16.70;99.90;;;;;;5012771;28;20271;-89
2021/08/17 14:10:19;;;;;;;;;;;16.70;99.90;;;;;;5012539;28;19909;-89
2021/08/17 14:12:44;;;;;;;;;;;16.70;99.90;;;;;;5012782;28;19909;-89